Time;durP1;ratioP1;P1;durP2;ratioP2;P2;SDS_P1;SDS_P2;PMS_P1;PMS_P2;Temp;Humidity;BMP_temperature;BMP_pressure;BME280_temperature;BME280_humidity;BME280_pressure;Samples;Min_cycle;Max_cycle;Signal;HPM_P1;HPM_P2
2022/07/10 00:00:08;;;;;;;6.10;4.90;;;13.10;99.90;;;;;;4957281;28;20125;-80
2022/07/10 00:02:34;;;;;;;8.95;6.38;;;13.10;99.90;;;;;;4961990;28;20030;-80
2022/07/10 00:05:00;;;;;;;10.18;7.10;;;13.10;99.90;;;;;;4957280;28;20081;-80
2022/07/10 00:07:26;;;;;;;8.73;6.95;;;13.00;99.90;;;;;;4941891;28;20038;-80
2022/07/10 00:09:52;;;;;;;9.95;6.10;;;13.00;99.90;;;;;;4942534;28;20039;-80
2022/07/10 00:12:17;;;;;;;10.20;5.10;;;12.90;99.90;;;;;;4961132;28;20037;-79
2022/07/10 00:14:43;;;;;;;7.38;5.25;;;12.90;99.90;;;;;;4944155;28;20126;-80
2022/07/10 00:17:09;;;;;;;7.88;6.10;;;12.90;99.90;;;;;;4958410;28;20052;-80
2022/07/10 00:19:35;;;;;;;14.88;7.75;;;12.90;99.90;;;;;;4958794;28;20037;-80
2022/07/10 00:22:00;;;;;;;11.38;6.65;;;12.80;99.90;;;;;;4951447;28;20126;-80
2022/07/10 00:24:26;;;;;;;12.07;7.40;;;12.90;99.90;;;;;;4959088;28;20763;-80
2022/07/10 00:26:52;;;;;;;10.27;8.05;;;12.80;99.90;;;;;;4954021;28;20047;-80
2022/07/10 00:29:17;;;;;;;10.85;8.18;;;12.80;99.90;;;;;;4948933;28;20026;-80
2022/07/10 00:31:43;;;;;;;10.68;7.10;;;12.70;99.90;;;;;;4955776;28;20203;-80
2022/07/10 00:34:09;;;;;;;11.50;7.15;;;12.70;99.90;;;;;;4951364;28;20034;-81
2022/07/10 00:36:34;;;;;;;8.48;5.55;;;12.70;99.90;;;;;;4954062;28;20046;-80
2022/07/10 00:39:00;;;;;;;7.43;4.60;;;12.60;99.90;;;;;;4940053;28;20375;-80
2022/07/10 00:41:26;;;;;;;8.23;5.22;;;12.60;99.90;;;;;;4941127;28;22177;-80
2022/07/10 00:43:55;;;;;;;9.63;6.82;;;12.60;99.90;;;;;;4957377;28;20842;-80
2022/07/10 00:46:21;;;;;;;10.98;7.43;;;12.60;99.90;;;;;;4957166;28;20039;-81
2022/07/10 00:48:50;;;;;;;12.25;8.25;;;12.60;99.90;;;;;;4959735;28;20674;-81
2022/07/10 00:51:18;;;;;;;13.05;8.27;;;12.50;99.90;;;;;;4955457;28;20062;-80
2022/07/10 00:53:49;;;;;;;12.60;8.50;;;12.50;99.90;;;;;;4959913;28;20050;-81
2022/07/10 00:56:17;;;;;;;13.75;7.97;;;12.40;99.90;;;;;;4938378;28;20071;-80
2022/07/10 00:58:45;;;;;;;16.42;8.15;;;12.40;99.90;;;;;;4954675;28;20044;-80
2022/07/10 01:01:11;;;;;;;12.38;9.00;;;12.30;99.90;;;;;;4955755;28;20041;-81
2022/07/10 01:03:37;;;;;;;10.82;8.05;;;12.30;99.90;;;;;;4959336;28;20034;-80
2022/07/10 01:06:03;;;;;;;9.23;6.38;;;12.20;99.90;;;;;;4965493;28;20162;-81
2022/07/10 01:08:29;;;;;;;9.40;6.47;;;12.20;99.90;;;;;;4947294;28;20038;-80
2022/07/10 01:10:55;;;;;;;8.52;5.25;;;12.10;99.90;;;;;;4958022;28;20561;-80
2022/07/10 01:13:21;;;;;;;7.20;5.50;;;12.00;99.90;;;;;;4959662;28;20035;-80
2022/07/10 01:15:48;;;;;;;8.40;5.45;;;12.00;99.90;;;;;;4935211;28;20098;-80
2022/07/10 01:18:14;;;;;;;7.72;5.80;;;12.00;99.90;;;;;;4957369;28;20201;-79
2022/07/10 01:20:40;;;;;;;7.90;4.32;;;12.00;99.90;;;;;;4955118;28;20031;-80
2022/07/10 01:23:06;;;;;;;8.73;6.10;;;12.00;99.90;;;;;;4959361;28;20139;-80
2022/07/10 01:25:32;;;;;;;7.32;5.10;;;12.00;99.90;;;;;;4960109;28;20038;-80
2022/07/10 01:27:58;;;;;;;7.30;4.28;;;12.10;99.90;;;;;;4958646;28;20446;-81
2022/07/10 01:30:25;;;;;;;5.50;3.90;;;12.00;99.90;;;;;;4958756;28;20046;-80
2022/07/10 01:32:52;;;;;;;6.03;4.88;;;12.00;99.90;;;;;;4956184;28;20034;-80
2022/07/10 01:35:18;;;;;;;6.25;4.35;;;12.00;99.90;;;;;;4957607;28;20432;-80
2022/07/10 01:37:44;;;;;;;7.30;4.00;;;12.00;99.90;;;;;;4955101;28;20035;-80
2022/07/10 01:40:10;;;;;;;7.22;4.03;;;11.90;99.90;;;;;;4956355;28;20030;-80
2022/07/10 01:42:37;;;;;;;8.10;4.63;;;11.90;99.90;;;;;;4957359;28;20030;-80
2022/07/10 01:45:07;;;;;;;10.50;5.05;;;11.90;99.90;;;;;;4958715;28;20027;-80
2022/07/10 01:47:33;;;;;;;7.55;4.28;;;11.90;99.90;;;;;;4960875;28;20023;-81
2022/07/10 01:49:59;;;;;;;6.00;4.57;;;11.90;99.90;;;;;;4944177;28;20604;-81
2022/07/10 01:52:25;;;;;;;6.10;4.10;;;11.80;99.90;;;;;;4959562;28;20027;-80
2022/07/10 01:54:51;;;;;;;6.97;4.65;;;11.80;99.90;;;;;;4966751;28;20072;-79
2022/07/10 01:57:17;;;;;;;5.35;4.60;;;11.80;99.90;;;;;;4965987;28;20148;-80
2022/07/10 01:59:42;;;;;;;5.50;4.80;;;11.80;99.90;;;;;;4961623;28;20022;-80
2022/07/10 02:02:09;;;;;;;4.53;4.13;;;11.80;99.90;;;;;;4960981;28;20031;-80
2022/07/10 02:04:40;;;;;;;8.15;4.38;;;11.80;99.90;;;;;;4961770;28;20081;-80
2022/07/10 02:07:07;;;;;;;4.43;3.90;;;11.70;99.90;;;;;;4955151;28;20037;-80
2022/07/10 02:09:33;;;;;;;5.80;4.18;;;11.70;99.90;;;;;;4960851;28;20387;-80
2022/07/10 02:11:58;;;;;;;5.13;4.18;;;11.70;99.90;;;;;;4960968;28;20045;-81
2022/07/10 02:14:24;;;;;;;7.45;5.10;;;11.60;99.90;;;;;;4961477;28;20108;-81
2022/07/10 02:16:50;;;;;;;9.02;5.22;;;11.50;99.90;;;;;;4962504;28;20089;-80
2022/07/10 02:19:15;;;;;;;6.03;5.43;;;11.50;99.90;;;;;;4942768;28;20035;-81
2022/07/10 02:21:41;;;;;;;8.50;5.40;;;11.50;99.90;;;;;;4964049;28;20631;-80
2022/07/10 02:24:07;;;;;;;5.75;5.10;;;11.40;99.90;;;;;;4947593;28;20057;-80
2022/07/10 02:26:32;;;;;;;6.05;5.47;;;11.40;99.90;;;;;;4944810;28;20030;-80
2022/07/10 02:28:58;;;;;;;6.43;5.38;;;11.40;99.90;;;;;;4962865;28;20145;-80
2022/07/10 02:31:24;;;;;;;6.68;4.88;;;11.40;99.90;;;;;;4945475;28;20042;-81
2022/07/10 02:33:49;;;;;;;9.95;5.25;;;11.40;99.90;;;;;;4962123;28;20107;-80
2022/07/10 02:36:15;;;;;;;6.57;5.32;;;11.40;99.90;;;;;;4961539;28;20145;-80
2022/07/10 02:38:41;;;;;;;8.80;5.07;;;11.40;99.90;;;;;;4960653;28;20027;-80
2022/07/10 02:41:06;;;;;;;6.18;4.55;;;11.40;99.90;;;;;;4959344;28;20054;-80
2022/07/10 02:43:32;;;;;;;9.02;5.18;;;11.40;99.90;;;;;;4956150;28;20043;-81
2022/07/10 02:45:58;;;;;;;5.13;4.18;;;11.40;99.90;;;;;;4958409;28;20042;-80
2022/07/10 02:48:24;;;;;;;5.97;4.75;;;11.40;99.90;;;;;;4957781;28;20082;-80
2022/07/10 02:50:50;;;;;;;5.50;5.00;;;11.40;99.90;;;;;;4927220;29;20046;-80
2022/07/10 02:53:15;;;;;;;8.75;5.50;;;11.50;99.90;;;;;;4948857;28;20027;-80
2022/07/10 02:55:41;;;;;;;7.53;5.13;;;11.50;99.90;;;;;;4921943;29;20090;-81
2022/07/10 02:58:09;;;;;;;7.15;5.10;;;11.60;99.90;;;;;;4938632;28;20149;-80
2022/07/10 03:00:35;;;;;;;7.45;5.53;;;11.70;99.90;;;;;;4935361;28;20032;-80
2022/07/10 03:03:01;;;;;;;6.45;4.95;;;11.70;99.90;;;;;;4943339;28;20880;-79
2022/07/10 03:05:27;;;;;;;7.28;4.82;;;11.70;99.90;;;;;;4925665;29;20035;-80
2022/07/10 03:07:53;;;;;;;6.45;5.30;;;11.70;99.90;;;;;;4919152;29;20038;-80
2022/07/10 03:10:19;;;;;;;6.72;4.97;;;11.70;99.90;;;;;;4945246;28;20039;-80
2022/07/10 03:12:44;;;;;;;8.30;5.65;;;11.60;99.90;;;;;;4944123;29;20027;-80
2022/07/10 03:15:11;;;;;;;6.95;5.07;;;11.60;99.90;;;;;;4927492;29;20597;-81
2022/07/10 03:17:36;;;;;;;5.57;4.78;;;11.50;99.90;;;;;;4949760;28;20054;-81
2022/07/10 03:20:02;;;;;;;6.88;5.10;;;11.50;99.90;;;;;;4943242;28;20039;-80
2022/07/10 03:22:28;;;;;;;6.90;5.15;;;11.50;99.90;;;;;;4943351;28;20027;-80
2022/07/10 03:24:54;;;;;;;7.18;5.57;;;11.50;99.90;;;;;;4940982;28;20118;-80
2022/07/10 03:27:20;;;;;;;6.05;5.45;;;11.50;99.90;;;;;;4939535;29;20100;-80
2022/07/10 03:29:46;;;;;;;6.72;5.05;;;11.50;99.90;;;;;;4943099;29;20035;-80
2022/07/10 03:32:11;;;;;;;5.72;4.30;;;11.50;99.90;;;;;;4922733;29;20130;-80
2022/07/10 03:34:37;;;;;;;6.95;4.88;;;11.50;99.90;;;;;;4942287;28;20035;-81
2022/07/10 03:37:03;;;;;;;9.30;5.32;;;11.50;99.90;;;;;;4943028;28;20039;-80
2022/07/10 03:39:29;;;;;;;4.65;4.07;;;11.50;99.90;;;;;;4926013;29;20079;-81
2022/07/10 03:41:55;;;;;;;5.07;4.60;;;11.50;99.90;;;;;;4944973;28;20063;-80
2022/07/10 03:44:20;;;;;;;6.05;4.82;;;11.50;99.90;;;;;;4945155;28;20377;-80
2022/07/10 03:46:46;;;;;;;7.13;4.70;;;11.40;99.90;;;;;;4937571;29;20038;-81
2022/07/10 03:49:12;;;;;;;5.82;4.85;;;11.40;99.90;;;;;;4947705;28;20447;-81
2022/07/10 03:51:37;;;;;;;7.03;5.45;;;11.30;99.90;;;;;;4960829;28;20030;-81
2022/07/10 03:54:03;;;;;;;6.47;5.70;;;11.30;99.90;;;;;;4956961;28;20026;-80
2022/07/10 03:59:13;;;;;;;8.43;5.32;;;11.20;99.90;;;;;;4963108;28;20085;-80
2022/07/10 04:01:38;;;;;;;8.18;4.88;;;11.20;99.90;;;;;;4944448;28;20043;-80
2022/07/10 04:04:04;;;;;;;5.53;4.90;;;11.20;99.90;;;;;;4957599;28;20051;-80
2022/07/10 04:06:30;;;;;;;6.15;4.63;;;11.10;99.90;;;;;;4961799;28;20534;-81
2022/07/10 04:08:55;;;;;;;8.88;5.45;;;11.10;99.90;;;;;;4961472;28;20031;-80
2022/07/10 04:11:21;;;;;;;6.72;5.15;;;11.10;99.90;;;;;;4959512;28;20027;-80
2022/07/10 04:13:47;;;;;;;6.13;4.97;;;11.00;99.90;;;;;;4961278;28;20057;-81
2022/07/10 04:16:13;;;;;;;7.13;5.50;;;11.00;99.90;;;;;;4961241;28;20070;-81
2022/07/10 04:18:42;;;;;;;5.53;5.03;;;10.90;99.90;;;;;;4961037;28;20100;-81
2022/07/10 04:21:08;;;;;;;6.28;5.10;;;10.90;99.90;;;;;;4959364;28;20025;-80
2022/07/10 04:23:34;;;;;;;6.03;4.38;;;10.80;99.90;;;;;;4961972;28;20064;-79
2022/07/10 04:26:00;;;;;;;7.35;4.88;;;10.80;99.90;;;;;;4960801;28;20034;-81
2022/07/10 04:28:26;;;;;;;6.55;4.93;;;10.80;99.90;;;;;;4945103;28;21952;-79
2022/07/10 04:30:52;;;;;;;6.80;4.45;;;10.80;99.90;;;;;;4960114;28;20109;-79
2022/07/10 04:33:17;;;;;;;7.65;4.60;;;10.80;99.90;;;;;;4954863;28;20023;-80
2022/07/10 04:35:43;;;;;;;6.38;4.95;;;10.80;99.90;;;;;;4950902;28;20160;-82
2022/07/10 04:38:09;;;;;;;7.47;5.10;;;10.80;99.90;;;;;;4940486;28;20171;-79
2022/07/10 04:40:35;;;;;;;8.48;5.50;;;10.90;99.90;;;;;;4957251;28;20039;-81
2022/07/10 04:43:00;;;;;;;8.93;5.60;;;11.00;99.90;;;;;;4959470;28;20027;-81
2022/07/10 04:45:26;;;;;;;6.82;5.13;;;11.00;99.90;;;;;;4961017;28;20924;-80
2022/07/10 04:47:52;;;;;;;7.57;4.97;;;11.00;99.90;;;;;;4939596;28;20034;-80
2022/07/10 04:50:18;;;;;;;8.02;5.88;;;11.10;99.90;;;;;;4961946;28;20467;-81
2022/07/10 04:52:43;;;;;;;8.10;5.15;;;11.10;99.90;;;;;;4963625;28;20542;-81
2022/07/10 04:55:09;;;;;;;11.75;6.05;;;11.20;99.90;;;;;;4959659;28;20042;-81
2022/07/10 04:57:35;;;;;;;7.88;6.13;;;11.20;99.90;;;;;;4959210;28;20102;-80
2022/07/10 05:00:01;;;;;;;7.63;5.22;;;11.30;99.90;;;;;;4958927;28;20027;-81
2022/07/10 05:02:27;;;;;;;8.13;5.85;;;11.30;99.90;;;;;;4955614;28;20054;-81
2022/07/10 05:04:53;;;;;;;6.97;5.50;;;11.30;99.90;;;;;;4951726;28;20072;-80
2022/07/10 05:07:18;;;;;;;9.15;5.90;;;11.40;99.90;;;;;;4951464;28;20580;-80
2022/07/10 05:09:44;;;;;;;7.75;5.13;;;11.40;99.90;;;;;;4951756;28;20037;-80
2022/07/10 05:12:10;;;;;;;7.97;5.28;;;11.50;99.90;;;;;;4934517;28;20034;-80
2022/07/10 05:14:36;;;;;;;8.25;6.15;;;11.60;99.90;;;;;;4958219;28;20558;-81
2022/07/10 05:17:01;;;;;;;7.97;6.28;;;11.60;99.90;;;;;;4960866;28;20043;-82
2022/07/10 05:19:27;;;;;;;8.23;5.47;;;11.70;99.90;;;;;;4942568;28;20043;-81
2022/07/10 05:21:53;;;;;;;5.82;5.00;;;11.70;99.90;;;;;;4962591;28;20034;-81
2022/07/10 05:24:18;;;;;;;9.00;5.85;;;11.80;99.90;;;;;;4959420;28;20632;-80
2022/07/10 05:26:44;;;;;;;12.02;6.03;;;11.80;99.90;;;;;;4960720;28;20066;-81
2022/07/10 05:29:10;;;;;;;8.55;5.18;;;11.90;99.90;;;;;;4959434;28;20035;-81
2022/07/10 05:31:35;;;;;;;6.47;5.00;;;12.00;99.90;;;;;;4956493;28;20075;-81
2022/07/10 05:34:01;;;;;;;6.93;4.78;;;12.00;99.90;;;;;;4957138;28;20436;-81
2022/07/10 05:36:27;;;;;;;8.02;4.65;;;12.10;99.90;;;;;;4957253;28;20109;-80
2022/07/10 05:38:52;;;;;;;6.93;5.10;;;12.10;99.90;;;;;;4957305;28;20056;-80
2022/07/10 05:41:18;;;;;;;5.97;5.00;;;12.20;99.90;;;;;;4955744;28;20102;-79
2022/07/10 05:43:44;;;;;;;9.10;5.15;;;12.30;99.90;;;;;;4960160;28;20034;-80
2022/07/10 05:46:09;;;;;;;8.93;5.18;;;12.30;99.90;;;;;;4939881;28;20401;-80
2022/07/10 05:48:35;;;;;;;5.47;4.90;;;12.40;99.90;;;;;;4958610;28;20129;-80
2022/07/10 05:51:01;;;;;;;8.13;5.07;;;12.50;99.90;;;;;;4959109;28;20026;-80
2022/07/10 05:53:26;;;;;;;7.63;5.13;;;12.50;99.90;;;;;;4958722;28;20046;-80
2022/07/10 05:55:52;;;;;;;7.40;4.55;;;12.60;99.90;;;;;;4959243;28;20138;-80
2022/07/10 05:58:18;;;;;;;6.60;4.45;;;12.70;99.90;;;;;;4942837;28;20038;-81
2022/07/10 06:00:45;;;;;;;7.70;4.65;;;12.80;99.90;;;;;;4940264;28;20458;-80
2022/07/10 06:03:11;;;;;;;7.65;4.32;;;12.80;99.90;;;;;;4957881;28;20031;-80
2022/07/10 06:05:38;;;;;;;5.30;4.25;;;12.90;99.90;;;;;;4957026;28;20035;-81
2022/07/10 06:08:04;;;;;;;4.90;4.40;;;13.00;99.90;;;;;;4959839;28;20102;-81
2022/07/10 06:10:29;;;;;;;6.97;5.13;;;13.10;99.90;;;;;;4957899;28;20038;-80
2022/07/10 06:12:55;;;;;;;5.18;3.85;;;13.20;99.90;;;;;;4958356;28;20031;-81
2022/07/10 06:15:21;;;;;;;4.18;3.78;;;13.30;99.90;;;;;;4954818;28;20122;-80
2022/07/10 06:17:47;;;;;;;7.53;4.38;;;13.40;99.90;;;;;;4960658;28;20102;-80
2022/07/10 06:20:12;;;;;;;8.00;4.47;;;13.50;99.90;;;;;;4941704;28;20151;-81
2022/07/10 06:22:39;;;;;;;6.93;4.43;;;13.60;99.90;;;;;;4941066;28;20477;-81
2022/07/10 06:25:07;;;;;;;5.07;4.15;;;13.70;99.90;;;;;;4955855;28;20030;-81
2022/07/10 06:27:34;;;;;;;6.00;3.95;;;13.80;99.90;;;;;;4956619;28;20022;-80
2022/07/10 06:30:00;;;;;;;6.43;3.88;;;13.80;99.90;;;;;;4938980;28;20442;-80
2022/07/10 06:32:26;;;;;;;5.22;4.57;;;13.90;99.90;;;;;;4958019;28;20356;-80
2022/07/10 06:34:53;;;;;;;5.85;4.28;;;14.00;99.90;;;;;;4941969;28;20038;-80
2022/07/10 06:37:19;;;;;;;8.10;6.22;;;14.10;99.90;;;;;;4961041;28;20545;-81
2022/07/10 06:39:47;;;;;;;7.65;5.30;;;14.20;99.90;;;;;;4962442;28;20055;-80
2022/07/10 06:42:13;;;;;;;5.22;3.83;;;14.40;99.90;;;;;;4961638;28;20074;-78
2022/07/10 06:44:39;;;;;;;10.55;4.43;;;14.50;99.90;;;;;;4959987;28;21691;-80
2022/07/10 06:49:51;;;;;;;6.82;4.45;;;14.70;99.90;;;;;;4944057;28;20058;-80
2022/07/10 06:52:17;;;;;;;17.90;16.48;;;14.80;99.90;;;;;;4926445;29;20031;-80
2022/07/10 06:54:43;;;;;;;5.93;4.70;;;14.90;99.90;;;;;;4942145;29;20133;-80
2022/07/10 06:57:09;;;;;;;8.45;7.13;;;15.00;99.90;;;;;;4921279;29;20048;-80
2022/07/10 06:59:35;;;;;;;6.30;4.07;;;15.10;99.90;;;;;;4925800;29;20039;-81
2022/07/10 07:02:01;;;;;;;8.05;4.57;;;15.20;99.90;;;;;;4940375;28;20027;-81
2022/07/10 07:04:27;;;;;;;9.52;3.10;;;15.30;99.90;;;;;;4936049;28;20039;-81
2022/07/10 07:06:52;;;;;;;5.38;3.42;;;15.40;99.90;;;;;;4937049;28;20110;-80
2022/07/10 07:09:18;;;;;;;8.13;3.38;;;15.60;99.90;;;;;;4939200;28;20153;-81
2022/07/10 07:11:44;;;;;;;9.27;6.63;;;15.70;99.90;;;;;;4941720;29;20039;-81
2022/07/10 07:14:09;;;;;;;5.40;2.88;;;15.90;99.90;;;;;;4938725;28;20033;-81
2022/07/10 07:16:41;;;;;;;11.20;5.03;;;15.90;99.90;;;;;;4935553;29;20050;-81
2022/07/10 07:19:07;;;;;;;5.30;3.35;;;16.00;99.90;;;;;;4941363;28;20111;-81
2022/07/10 07:24:20;;;;;;;7.40;3.45;;;16.20;99.90;;;;;;4941508;28;20042;-80
2022/07/10 07:26:47;;;;;;;7.10;2.78;;;16.30;99.90;;;;;;4935753;29;20031;-80
2022/07/10 07:29:17;;;;;;;4.30;2.45;;;16.40;99.90;;;;;;4933075;28;21975;-81
2022/07/10 07:31:43;;;;;;;8.00;3.20;;;16.60;99.90;;;;;;4930333;28;20113;-82
2022/07/10 07:34:09;;;;;;;6.10;2.00;;;16.80;99.90;;;;;;4935621;29;20031;-82
2022/07/10 07:36:36;;;;;;;4.00;1.98;;;18.00;99.90;;;;;;4918256;29;20192;-83
2022/07/10 07:39:01;;;;;;;3.88;1.95;;;19.30;99.90;;;;;;4940592;28;20045;-82
2022/07/10 07:41:27;;;;;;;5.00;1.70;;;21.10;99.90;;;;;;4923345;28;20641;-79
2022/07/10 07:43:53;;;;;;;5.13;1.75;;;21.90;99.90;;;;;;4923854;28;20558;-82
2022/07/10 07:46:19;;;;;;;3.88;1.77;;;22.60;99.90;;;;;;4937647;28;20078;-82
2022/07/10 07:48:45;;;;;;;6.68;1.30;;;24.70;99.90;;;;;;4939765;28;20267;-81
2022/07/10 07:51:11;;;;;;;3.65;1.13;;;28.70;82.40;;;;;;4940801;28;20529;-82
2022/07/10 07:53:37;;;;;;;3.92;1.30;;;31.70;58.50;;;;;;4958898;28;20539;-83
2022/07/10 07:56:03;;;;;;;4.22;0.93;;;33.10;48.60;;;;;;4960782;28;20039;-83
2022/07/10 07:58:29;;;;;;;2.83;0.90;;;35.40;41.10;;;;;;4960309;28;20069;-84
2022/07/10 08:00:56;;;;;;;0.80;0.60;;;36.80;36.60;;;;;;4952642;28;20027;-84
2022/07/10 08:03:22;;;;;;;2.85;0.80;;;38.20;34.40;;;;;;4940590;28;20039;-84
2022/07/10 08:05:49;;;;;;;4.15;0.80;;;39.80;34.00;;;;;;4952897;28;20138;-84
2022/07/10 08:08:15;;;;;;;2.58;0.60;;;39.30;31.60;;;;;;4956399;28;20033;-82
2022/07/10 08:10:40;;;;;;;1.50;0.60;;;39.70;31.20;;;;;;4955508;28;20027;-87
2022/07/10 08:13:06;;;;;;;2.75;0.82;;;40.30;31.30;;;;;;4937359;28;20105;-85
2022/07/10 08:15:34;;;;;;;1.67;0.93;;;42.20;28.90;;;;;;4610440;28;9999738;-86
2022/07/10 08:18:03;;;;;;;2.72;1.02;;;40.40;29.80;;;;;;4954862;28;20047;-87
2022/07/10 08:20:29;;;;;;;2.08;0.70;;;39.60;29.70;;;;;;4954790;28;20031;-86
2022/07/10 08:22:55;;;;;;;1.30;0.43;;;39.90;29.40;;;;;;4956448;28;20053;-86
2022/07/10 08:25:21;;;;;;;1.05;0.57;;;40.90;29.70;;;;;;4953945;28;20023;-86
2022/07/10 08:27:47;;;;;;;1.15;0.57;;;40.80;29.00;;;;;;4954126;28;20026;-83
2022/07/10 08:30:13;;;;;;;1.70;0.80;;;40.30;29.10;;;;;;4953689;28;21703;-87
2022/07/10 08:32:39;;;;;;;1.43;0.70;;;39.50;29.90;;;;;;4599841;28;9999928;-90
2022/07/10 08:35:06;;;;;;;4.85;1.20;;;41.20;31.10;;;;;;4946513;28;20407;-84
2022/07/10 08:37:44;;;;;;;2.55;0.90;;;41.50;30.20;;;;;;4947828;28;20043;-89
2022/07/10 08:40:13;;;;;;;3.38;0.95;;;42.30;29.00;;;;;;4951833;28;20064;-90
2022/07/10 08:42:39;;;;;;;3.53;0.90;;;41.50;29.00;;;;;;4953574;28;20038;-86
2022/07/10 08:45:06;;;;;;;3.53;1.00;;;42.10;31.80;;;;;;4958152;28;20049;-83
2022/07/10 08:47:35;;;;;;;2.60;1.20;;;40.70;28.80;;;;;;4957082;28;20028;-85
2022/07/10 08:50:01;;;;;;;1.63;0.80;;;41.30;29.80;;;;;;4952561;28;20600;-87
2022/07/10 08:52:42;;;;;;;2.03;0.80;;;41.60;31.50;;;;;;4955318;28;20495;-80
2022/07/10 08:55:07;;;;;;;;;;;41.90;30.20;;;;;;4952565;28;20494;-82
2022/07/10 08:57:35;;;;;;;3.00;0.88;;;41.80;29.50;;;;;;4957230;28;19932;-84
2022/07/10 09:00:01;;;;;;;3.13;0.80;;;41.20;31.50;;;;;;4954999;28;20027;-82
2022/07/10 09:02:27;;;;;;;1.63;0.88;;;40.50;30.90;;;;;;4931294;28;20571;-84
2022/07/10 09:04:52;;;;;;;1.65;0.80;;;41.20;31.20;;;;;;4948837;28;20963;-85
2022/07/10 09:07:18;;;;;;;6.25;0.80;;;41.20;30.50;;;;;;4945885;28;20976;-84
2022/07/10 09:09:57;;;;;;;3.13;1.27;;;41.00;31.20;;;;;;4953602;28;20556;-89
2022/07/10 09:12:24;;;;;;;3.25;0.90;;;39.60;29.50;;;;;;4941679;28;21710;-90
2022/07/10 09:14:51;;;;;;;2.42;0.88;;;40.30;30.60;;;;;;4953440;28;20031;-87
2022/07/10 09:17:17;;;;;;;1.33;0.63;;;40.40;31.70;;;;;;4953368;28;20174;-88
2022/07/10 09:19:43;;;;;;;2.42;0.77;;;40.30;30.00;;;;;;4958178;28;20237;-88
2022/07/10 09:22:11;;;;;;;2.65;0.90;;;39.80;28.90;;;;;;4945616;28;20153;-89
2022/07/10 09:24:45;;;;;;;1.13;0.85;;;40.00;29.60;;;;;;4940172;28;20027;-86
2022/07/10 09:27:14;;;;;;;1.98;0.95;;;39.10;29.10;;;;;;4944929;28;20038;-94
2022/07/10 09:29:58;;;;;;;1.42;0.80;;;39.30;29.70;;;;;;4948857;28;20253;-92
2022/07/10 09:32:24;;;;;;;1.75;0.70;;;39.00;29.80;;;;;;4922537;28;20054;-82
2022/07/10 09:37:39;;;;;;;2.25;0.95;;;38.00;32.20;;;;;;4945499;28;20054;-81
2022/07/10 09:40:07;;;;;;;1.48;0.57;;;38.90;31.20;;;;;;4943946;28;20170;-82
2022/07/10 09:42:42;;;;;;;1.52;0.82;;;39.30;32.80;;;;;;4937630;28;20597;-82
2022/07/10 09:45:17;;;;;;;3.25;0.65;;;38.50;29.60;;;;;;4930133;28;20485;-82
2022/07/10 09:47:51;;;;;;;1.67;0.52;;;38.50;31.50;;;;;;4944912;28;20035;-82
2022/07/10 09:50:34;;;;;;;2.92;0.90;;;37.90;29.40;;;;;;4937622;28;20047;-82
2022/07/10 09:53:12;;;;;;;2.58;1.15;;;38.10;32.50;;;;;;4924508;28;20074;-82
2022/07/10 09:55:38;;;;;;;3.10;0.90;;;37.90;31.60;;;;;;4939934;28;20035;-82
2022/07/10 09:58:06;;;;;;;3.25;0.73;;;37.80;30.90;;;;;;4938662;28;20437;-83
2022/07/10 10:00:40;;;;;;;2.90;0.95;;;37.40;33.40;;;;;;4935614;28;20133;-82
2022/07/10 10:03:11;;;;;;;3.70;1.13;;;36.50;30.80;;;;;;4943877;28;20470;-80
2022/07/10 10:06:02;;;;;;;1.38;0.60;;;37.00;35.10;;;;;;4943243;28;20081;-80
2022/07/10 10:08:35;;;;;;;1.55;0.70;;;37.40;33.90;;;;;;4939268;28;20144;-82
2022/07/10 10:11:03;;;;;;;2.83;0.77;;;37.20;32.30;;;;;;4942352;28;20035;-82
2022/07/10 10:13:30;;;;;;;2.85;0.68;;;37.60;34.30;;;;;;4950672;28;20034;-81
2022/07/10 10:15:57;;;;;;;1.33;0.35;;;37.30;30.90;;;;;;4937745;28;20035;-82
2022/07/10 10:18:25;;;;;;;2.28;0.90;;;37.40;32.30;;;;;;4947570;28;20053;-82
2022/07/10 10:20:55;;;;;;;1.38;0.80;;;37.90;35.30;;;;;;4946311;28;20370;-82
2022/07/10 10:23:24;;;;;;;3.60;0.60;;;38.30;32.90;;;;;;4945033;28;20039;-82
2022/07/10 10:25:56;;;;;;;1.80;0.52;;;38.00;31.60;;;;;;4941479;28;20418;-83
2022/07/10 10:28:24;;;;;;;2.50;0.82;;;37.70;31.20;;;;;;4940397;28;20046;-85
2022/07/10 10:30:57;;;;;;;5.03;0.85;;;37.80;30.20;;;;;;4943059;28;20041;-83
2022/07/10 10:33:39;;;;;;;2.45;0.70;;;37.40;31.10;;;;;;4607892;28;10000117;-84
2022/07/10 10:36:06;;;;;;;3.83;0.90;;;37.00;33.30;;;;;;4946400;28;20097;-84
2022/07/10 10:38:51;;;;;;;1.45;0.70;;;36.10;32.40;;;;;;4942084;28;20149;-84
2022/07/10 10:41:31;;;;;;;1.60;0.77;;;36.30;32.60;;;;;;4928834;28;20030;-84
2022/07/10 10:44:11;;;;;;;2.22;0.50;;;36.60;35.70;;;;;;4944915;28;20524;-84
2022/07/10 10:47:06;;;;;;;2.03;0.57;;;36.60;35.10;;;;;;4946445;28;20083;-84
2022/07/10 10:49:54;;;;;;;2.15;0.70;;;36.80;33.80;;;;;;4948856;28;20080;-89
2022/07/10 10:52:21;;;;;;;2.08;0.50;;;36.70;30.80;;;;;;4947491;28;20083;-78
2022/07/10 10:54:56;;;;;;;2.75;0.80;;;36.90;32.90;;;;;;4942275;28;20046;-85
2022/07/10 10:57:37;;;;;;;2.83;0.60;;;36.80;33.60;;;;;;4948718;28;20061;-81
2022/07/10 11:00:08;;;;;;;1.17;0.60;;;36.90;32.50;;;;;;4947493;28;20033;-84
2022/07/10 11:02:42;;;;;;;5.32;0.80;;;37.00;35.70;;;;;;4923392;28;20030;-84
2022/07/10 11:05:24;;;;;;;2.88;0.70;;;36.90;33.10;;;;;;4948150;28;20613;-85
2022/07/10 11:07:56;;;;;;;2.33;0.70;;;35.80;31.40;;;;;;4945430;28;20033;-84
2022/07/10 11:10:33;;;;;;;2.25;0.75;;;35.30;36.50;;;;;;4940515;28;20039;-84
2022/07/10 11:13:17;;;;;;;2.80;0.80;;;36.10;33.80;;;;;;4951278;28;20341;-84
2022/07/10 11:15:46;;;;;;;0.50;0.50;;;35.50;36.20;;;;;;4943827;28;20514;-84
2022/07/10 11:18:14;;;;;;;2.05;0.70;;;35.60;34.00;;;;;;4928461;28;20045;-84
2022/07/10 11:20:49;;;;;;;2.05;0.60;;;35.40;36.60;;;;;;4956591;28;20031;-84
2022/07/10 11:23:33;;;;;;;2.85;0.65;;;35.60;36.50;;;;;;4956113;28;20130;-84
2022/07/10 11:26:08;;;;;;;1.48;0.75;;;35.50;38.70;;;;;;4942539;28;20278;-84
2022/07/10 11:28:52;;;;;;;3.88;0.80;;;35.10;36.90;;;;;;4946125;28;20089;-84
2022/07/10 11:31:22;;;;;;;1.10;0.68;;;35.10;35.60;;;;;;4952617;28;20038;-84
2022/07/10 11:33:56;;;;;;;1.85;0.60;;;34.40;33.00;;;;;;4944725;28;20042;-82
2022/07/10 11:36:30;;;;;;;1.40;0.70;;;34.00;38.90;;;;;;4933621;28;20171;-83
2022/07/10 11:38:59;;;;;;;1.15;0.57;;;33.40;37.10;;;;;;4955463;28;20408;-84
2022/07/10 11:41:26;;;;;;;0.75;0.70;;;33.20;42.70;;;;;;4941494;28;20037;-84
2022/07/10 11:43:54;;;;;;;2.10;0.80;;;32.60;41.30;;;;;;4958099;28;20524;-83
2022/07/10 11:46:25;;;;;;;1.83;0.77;;;32.50;40.40;;;;;;4952918;28;20043;-81
2022/07/10 11:48:56;;;;;;;2.15;0.82;;;31.80;41.20;;;;;;4941138;28;20046;-84
2022/07/10 11:51:30;;;;;;;3.13;0.73;;;31.80;39.20;;;;;;4960191;28;20097;-84
2022/07/10 11:54:05;;;;;;;1.83;0.60;;;31.50;39.40;;;;;;4938198;29;20081;-83
2022/07/10 11:56:33;;;;;;;1.33;0.50;;;31.20;45.80;;;;;;4950718;28;20038;-83
2022/07/10 11:59:04;;;;;;;1.15;0.47;;;31.10;40.10;;;;;;4941962;28;20038;-83
2022/07/10 12:01:35;;;;;;;0.57;0.57;;;31.30;45.60;;;;;;4957622;28;20636;-83
2022/07/10 12:04:05;;;;;;;2.77;0.70;;;31.30;44.50;;;;;;4961374;28;20511;-84
2022/07/10 12:06:32;;;;;;;2.53;0.55;;;31.10;44.00;;;;;;4959367;28;20775;-83
2022/07/10 12:09:07;;;;;;;2.60;0.60;;;30.60;47.50;;;;;;4942698;28;20490;-84
2022/07/10 12:11:33;;;;;;;1.02;0.40;;;30.30;45.50;;;;;;4959877;28;20069;-83
2022/07/10 12:14:17;;;;;;;0.73;0.60;;;30.50;44.20;;;;;;4941531;28;20543;-83
2022/07/10 12:16:43;;;;;;;2.80;0.70;;;30.60;49.90;;;;;;4960083;28;20729;-83
2022/07/10 12:19:11;;;;;;;3.13;0.75;;;30.60;44.40;;;;;;4944877;28;20049;-84
2022/07/10 12:21:38;;;;;;;2.30;0.50;;;30.30;42.90;;;;;;4614714;28;10000325;-83
2022/07/10 12:24:04;;;;;;;1.42;0.60;;;29.80;45.70;;;;;;4941075;28;20505;-83
2022/07/10 12:26:35;;;;;;;2.95;0.65;;;29.90;46.00;;;;;;4953389;28;20046;-83
2022/07/10 12:29:02;;;;;;;2.45;0.90;;;29.70;44.60;;;;;;4955966;28;20043;-83
2022/07/10 12:31:38;;;;;;;2.15;0.50;;;29.90;50.40;;;;;;4955440;28;20215;-84
2022/07/10 12:34:05;;;;;;;1.08;0.70;;;30.10;51.10;;;;;;4940630;28;20047;-84
2022/07/10 12:36:46;;;;;;;2.67;0.50;;;30.00;47.50;;;;;;4956741;28;20038;-83
2022/07/10 12:39:14;;;;;;;0.80;0.80;;;29.80;59.60;;;;;;4958878;28;20338;-83
2022/07/10 12:41:56;;;;;;;1.65;0.98;;;30.00;50.00;;;;;;4940414;28;20035;-83
2022/07/10 12:44:34;;;;;;;1.20;0.68;;;29.80;48.40;;;;;;4938008;28;20041;-83
2022/07/10 12:47:02;;;;;;;1.98;0.90;;;29.70;50.80;;;;;;4957915;28;20062;-83
2022/07/10 12:49:28;;;;;;;2.92;0.65;;;29.70;48.10;;;;;;4952417;28;20058;-83
2022/07/10 12:51:54;;;;;;;1.65;0.80;;;29.80;43.70;;;;;;4952262;28;20039;-83
2022/07/10 12:54:36;;;;;;;3.45;0.60;;;29.80;50.20;;;;;;4952911;28;20046;-83
2022/07/10 12:57:06;;;;;;;2.17;0.70;;;29.60;47.40;;;;;;4950770;28;20045;-83
2022/07/10 12:59:36;;;;;;;2.92;0.63;;;29.70;47.10;;;;;;4947403;28;20101;-84